Pagina principale
METAR-TAF:

METAR-TAF

Aeroporti :

Piattaforma petrolifera

Goeree Le, Paesi Bassi

latitudine: 51-55-33N, longitudine: 3-40-12E, altezza: 19 m

Osservazione

Il bollettino è stato emesso 30 minuti fa, alle 15:55 UTC
Vento 18 kt da ovest/nord-ovest
Temperature 20°C
Umidità 83%
Pressione 1017 hPa
Visibilità 10 km o più

METAR: EHSC 241555Z AUTO 29018KT 9999 ///////// 20/17 Q1017 W17/H4

Ora: 18:25 (16:25 UTC)


TAF: mancante

Osservazioni e previsioni meteorologiche di più di 4000 aeroporti (messaggi METAR e TAF).

Le stazioni disponibili sono rappresentate dai dischi gialli e rossi sulla carta.

Puntare il mouse per vedere il nome della stazione.

Clicca sopra per visualizzare le osservazioni e previsioni meteorologiche.

Per cambiare la mappa : fare clic sui pulsanti verdi con una croce nera per ingrandire, il pulsante verde con un trattino per diminuire, o sulla freccia verde per le mappe adiacenti.


METAR-TAF: